Terminal Aerodrome Forecast
Issued by NWS Newport/Morehead City, NC

Home | Current Version | Previous Version | Graphics & Text | Print | Product List | Glossary On
Versions: 1 2 3 4 5 6 7 8 9 10 11 12
000
FTUS42 KMHX 221100
TAFEWN
TAF
KEWN 221139Z 2212/2312 00000KT P6SM SKC
     FM221300 24006G15KT P6SM BKN150
     FM222200 23011G18KT P6SM VCSH BKN080
     FM230400 30006KT P6SM SKC=

USA.gov is the U.S. government's official web portal to all federal, state and local government web resources and services.